createdAt,value
2018-03-22T00:00:13.275Z,4.10
2018-03-22T00:03:17.435Z,4.45
2018-03-22T00:06:20.692Z,5.32
2018-03-22T00:09:23.926Z,4.70
2018-03-22T00:12:27.501Z,5.53
2018-03-22T00:15:31.592Z,5.85
2018-03-22T00:18:35.102Z,4.82
2018-03-22T00:21:38.456Z,4.85
2018-03-22T00:24:41.751Z,4.53
2018-03-22T00:27:45.007Z,5.50
2018-03-22T00:30:48.355Z,5.00
2018-03-22T00:33:51.647Z,4.43
2018-03-22T00:36:54.977Z,6.22
2018-03-22T00:39:58.553Z,5.90
2018-03-22T00:43:02.096Z,5.28
2018-03-22T00:46:06.170Z,5.53
2018-03-22T00:49:09.494Z,4.72
2018-03-22T00:52:12.798Z,4.82
2018-03-22T00:55:16.129Z,4.30
2018-03-22T00:58:20.161Z,4.82
2018-03-22T01:01:23.559Z,4.50
2018-03-22T01:04:26.930Z,5.18
2018-03-22T01:07:30.984Z,5.53
2018-03-22T01:10:34.235Z,4.35
2018-03-22T01:13:38.285Z,6.18
2018-03-22T01:16:41.618Z,4.75
2018-03-22T01:19:44.919Z,4.87
2018-03-22T01:22:48.985Z,4.90
2018-03-22T01:25:52.286Z,4.57
2018-03-22T01:28:55.578Z,5.47
2018-03-22T01:31:59.269Z,4.85
2018-03-22T01:35:03.294Z,4.82
2018-03-22T01:38:07.437Z,5.28
2018-03-22T01:41:10.711Z,4.40
2018-03-22T01:44:14.065Z,5.47
2018-03-22T01:47:17.314Z,5.00
2018-03-22T01:50:20.907Z,4.82
2018-03-22T01:53:24.176Z,4.55
2018-03-22T01:56:27.498Z,5.57
2018-03-22T01:59:30.835Z,4.60
2018-03-22T02:02:34.139Z,4.53
2018-03-22T02:05:37.462Z,5.25
2018-03-22T02:08:40.765Z,3.50
2018-03-22T02:11:44.100Z,6.07
2018-03-22T02:14:47.451Z,5.28
2018-03-22T02:17:50.755Z,4.87
2018-03-22T02:20:54.922Z,4.90
2018-03-22T02:23:58.191Z,5.35
2018-03-22T02:27:01.756Z,4.80
2018-03-22T02:30:05.056Z,4.70
2018-03-22T02:33:08.361Z,5.47
2018-03-22T02:36:11.672Z,5.95
2018-03-22T02:39:15.012Z,5.80
2018-03-22T02:42:18.287Z,5.70
2018-03-22T02:45:21.651Z,4.82
2018-03-22T02:48:25.748Z,4.87
2018-03-22T02:51:30.072Z,5.12
2018-03-22T02:54:33.420Z,5.85
2018-03-22T02:57:36.813Z,4.35
2018-03-22T03:00:40.109Z,5.70
2018-03-22T03:03:43.427Z,5.40
2018-03-22T03:06:46.695Z,5.45
2018-03-22T03:09:49.981Z,5.90
2018-03-22T03:12:53.275Z,6.05
2018-03-22T03:15:56.557Z,5.35
2018-03-22T03:18:59.813Z,5.28
2018-03-22T03:22:03.110Z,6.12
2018-03-22T03:25:06.340Z,5.03
2018-03-22T03:28:09.653Z,6.05
2018-03-22T03:31:13.493Z,5.50
2018-03-22T03:34:16.754Z,4.75
2018-03-22T03:37:20.878Z,5.45
2018-03-22T03:40:24.146Z,4.37
2018-03-22T03:43:27.574Z,4.97
2018-03-22T03:46:30.873Z,5.32
2018-03-22T03:49:34.154Z,5.20
2018-03-22T03:52:37.720Z,6.65
2018-03-22T03:55:41.074Z,5.87
2018-03-22T03:58:44.834Z,6.03
2018-03-22T04:01:48.128Z,5.50
2018-03-22T04:04:51.482Z,7.32
2018-03-22T04:07:54.752Z,7.00
2018-03-22T04:10:58.798Z,8.45
2018-03-22T04:14:02.043Z,7.87
2018-03-22T04:17:05.395Z,7.80
2018-03-22T04:20:08.657Z,6.62
2018-03-22T04:23:12.725Z,7.28
2018-03-22T04:26:15.989Z,8.20
2018-03-22T04:29:19.281Z,7.25
2018-03-22T04:32:23.307Z,8.30
2018-03-22T04:35:26.638Z,9.00
2018-03-22T04:38:29.944Z,7.47
2018-03-22T04:41:33.503Z,8.18
2018-03-22T04:44:36.841Z,7.65
2018-03-22T04:47:40.142Z,9.02
2018-03-22T04:50:43.515Z,7.10
2018-03-22T04:53:46.805Z,9.40
2018-03-22T04:56:50.187Z,9.45
2018-03-22T04:59:54.489Z,8.65
2018-03-22T05:02:59.267Z,9.00
2018-03-22T05:06:02.575Z,8.13
2018-03-22T05:09:05.878Z,10.02
2018-03-22T05:12:09.208Z,9.48
2018-03-22T05:15:13.241Z,8.73
2018-03-22T05:18:16.545Z,9.82
2018-03-22T05:21:19.833Z,11.25
2018-03-22T05:24:23.167Z,10.98
2018-03-22T05:27:26.446Z,10.52
2018-03-22T05:30:30.617Z,9.95
2018-03-22T05:33:34.870Z,10.55
2018-03-22T05:36:38.169Z,10.13
2018-03-22T05:39:41.556Z,11.00
2018-03-22T05:42:44.879Z,10.38
2018-03-22T05:45:49.030Z,11.68
2018-03-22T05:48:52.375Z,13.88
2018-03-22T05:51:55.773Z,11.55
2018-03-22T05:54:59.174Z,13.60
2018-03-22T05:58:03.250Z,12.10
2018-03-22T06:01:06.579Z,16.12
2018-03-22T06:04:09.829Z,12.50
2018-03-22T06:07:13.123Z,12.00
2018-03-22T06:10:16.407Z,11.65
2018-03-22T06:13:19.764Z,12.80
2018-03-22T06:16:23.578Z,12.90
2018-03-22T06:19:26.875Z,14.00
2018-03-22T06:22:30.505Z,12.60
2018-03-22T06:25:34.015Z,11.25
2018-03-22T06:28:37.525Z,13.02
2018-03-22T06:31:40.842Z,12.65
2018-03-22T06:34:44.175Z,14.07
2018-03-22T06:37:47.567Z,12.82
2018-03-22T06:40:50.913Z,12.25
2018-03-22T06:43:54.190Z,12.00
2018-03-22T06:46:57.497Z,11.70
2018-03-22T06:50:00.873Z,11.95
2018-03-22T06:53:04.317Z,9.65
2018-03-22T06:56:07.607Z,12.98
2018-03-22T06:59:11.045Z,14.30
2018-03-22T07:02:15.274Z,10.60
2018-03-22T07:05:18.989Z,11.70
2018-03-22T07:08:22.228Z,11.50
2018-03-22T07:11:25.553Z,10.38
2018-03-22T07:14:28.859Z,8.48
2018-03-22T07:17:33.024Z,13.57
2018-03-22T07:20:36.353Z,12.60
2018-03-22T07:23:39.664Z,12.27
2018-03-22T07:26:43.744Z,11.82
2018-03-22T07:29:47.071Z,12.35
2018-03-22T07:32:50.482Z,11.60
2018-03-22T07:35:53.847Z,9.93
2018-03-22T07:38:57.165Z,11.98
2018-03-22T07:42:00.428Z,10.65
2018-03-22T07:45:09.612Z,11.30
2018-03-22T07:48:13.690Z,13.00
2018-03-22T07:51:16.992Z,11.23
2018-03-22T07:54:20.276Z,10.73
2018-03-22T07:57:23.623Z,11.88
2018-03-22T08:00:27.668Z,12.65
2018-03-22T08:03:30.969Z,11.15
2018-03-22T08:06:34.483Z,11.50
2018-03-22T08:09:37.910Z,12.13
2018-03-22T08:12:41.166Z,11.60
2018-03-22T08:15:44.475Z,12.30
2018-03-22T08:18:47.769Z,10.82
2018-03-22T08:21:51.064Z,9.45
2018-03-22T08:24:54.396Z,11.63
2018-03-22T08:27:58.833Z,11.68
2018-03-22T08:31:02.117Z,10.02
2018-03-22T08:34:05.610Z,12.68
2018-03-22T08:37:08.854Z,12.73
2018-03-22T08:40:12.286Z,11.15
2018-03-22T08:43:15.802Z,13.73
2018-03-22T08:46:19.213Z,11.20
2018-03-22T08:49:23.253Z,12.57
2018-03-22T08:52:26.686Z,10.45
2018-03-22T08:55:29.964Z,10.77
2018-03-22T08:58:33.503Z,11.57
2018-03-22T09:01:36.773Z,11.60
2018-03-22T09:04:40.112Z,12.48
2018-03-22T09:07:44.184Z,11.73
2018-03-22T09:10:47.872Z,13.43
2018-03-22T09:13:51.995Z,13.00
2018-03-22T09:16:55.305Z,11.32
2018-03-22T09:19:59.735Z,13.07
2018-03-22T09:23:03.187Z,12.70
2018-03-22T09:26:08.261Z,11.48
2018-03-22T09:29:11.697Z,12.93
2018-03-22T09:32:14.990Z,12.20
2018-03-22T09:35:18.317Z,12.37
2018-03-22T09:38:21.595Z,11.45
2018-03-22T09:41:25.179Z,11.68
2018-03-22T09:44:28.623Z,13.13
2018-03-22T09:47:32.448Z,12.15
2018-03-22T09:50:35.731Z,12.27
2018-03-22T09:53:39.113Z,11.38
2018-03-22T09:56:42.510Z,11.50
2018-03-22T09:59:45.933Z,12.00
2018-03-22T10:02:50.012Z,13.25
2018-03-22T10:05:53.236Z,12.95
2018-03-22T10:08:56.590Z,11.68
2018-03-22T10:11:59.944Z,11.88
2018-03-22T10:15:03.266Z,11.73
2018-03-22T10:18:06.650Z,11.20
2018-03-22T10:21:10.010Z,12.82
2018-03-22T10:24:14.161Z,10.73
2018-03-22T10:27:18.268Z,11.68
2018-03-22T10:30:21.565Z,12.40
2018-03-22T10:33:25.057Z,12.05
2018-03-22T10:36:28.878Z,11.98
2018-03-22T10:39:32.351Z,12.30
2018-03-22T10:42:35.869Z,11.93
2018-03-22T10:45:39.318Z,11.73
2018-03-22T10:48:42.648Z,11.40
2018-03-22T10:51:46.034Z,11.55
2018-03-22T10:54:49.595Z,11.52
2018-03-22T10:57:52.917Z,12.30
2018-03-22T11:01:01.802Z,10.88
2018-03-22T11:04:08.069Z,11.07
2018-03-22T11:07:12.128Z,11.52
2018-03-22T11:10:15.452Z,11.20
2018-03-22T11:13:18.739Z,11.15
2018-03-22T11:16:22.028Z,11.35
2018-03-22T11:19:26.074Z,11.57
2018-03-22T11:22:30.122Z,11.77
2018-03-22T11:25:33.601Z,12.68
2018-03-22T11:28:37.270Z,10.43
2018-03-22T11:31:41.475Z,11.68
2018-03-22T11:34:44.808Z,11.88
2018-03-22T11:37:48.181Z,12.10
2018-03-22T11:40:52.335Z,12.55
2018-03-22T11:43:56.450Z,11.82
2018-03-22T11:46:59.907Z,11.38
2018-03-22T11:50:03.206Z,11.20
2018-03-22T11:53:06.504Z,12.23
2018-03-22T11:56:10.914Z,10.60
2018-03-22T11:59:14.251Z,11.75
2018-03-22T12:02:18.375Z,10.85
2018-03-22T12:05:22.453Z,10.70
2018-03-22T12:08:26.591Z,11.20
2018-03-22T12:11:30.641Z,10.15
2018-03-22T12:14:34.021Z,11.10
2018-03-22T12:17:37.367Z,10.02
2018-03-22T12:20:41.031Z,9.70
2018-03-22T12:23:45.057Z,10.57
2018-03-22T12:26:48.656Z,10.20
2018-03-22T12:29:51.986Z,10.23
2018-03-22T12:32:55.628Z,10.00
2018-03-22T12:35:58.942Z,10.95
2018-03-22T12:39:02.272Z,8.30
2018-03-22T12:42:05.614Z,9.95
2018-03-22T12:45:09.029Z,10.23
2018-03-22T12:48:12.303Z,10.18
2018-03-22T12:51:16.521Z,10.75
2018-03-22T12:54:19.817Z,10.20
2018-03-22T12:57:23.169Z,8.63
2018-03-22T13:00:26.473Z,9.02
2018-03-22T13:03:29.811Z,8.00
2018-03-22T13:06:33.134Z,8.20
2018-03-22T13:09:36.416Z,8.68
2018-03-22T13:12:39.720Z,8.38
2018-03-22T13:15:42.999Z,9.02
2018-03-22T13:18:46.337Z,8.60
2018-03-22T13:21:49.679Z,7.45
2018-03-22T13:24:52.971Z,6.87
2018-03-22T13:27:56.351Z,7.97
2018-03-22T13:30:59.678Z,8.00
2018-03-22T13:34:02.953Z,7.40
2018-03-22T13:37:06.232Z,8.85
2018-03-22T13:40:09.518Z,8.07
2018-03-22T13:43:12.828Z,7.37
2018-03-22T13:46:16.124Z,6.65
2018-03-22T13:49:19.443Z,6.18
2018-03-22T13:52:22.708Z,7.40
2018-03-22T13:55:26.057Z,7.68
2018-03-22T13:58:30.172Z,7.10
2018-03-22T14:01:33.678Z,7.12
2018-03-22T14:04:37.011Z,6.90
2018-03-22T14:07:41.035Z,7.15
2018-03-22T14:10:44.348Z,7.35
2018-03-22T14:13:48.404Z,7.53
2018-03-22T14:16:51.899Z,6.82
2018-03-22T14:19:55.243Z,7.12
2018-03-22T14:22:58.555Z,6.78
2018-03-22T14:26:01.825Z,8.18
2018-03-22T14:29:05.182Z,6.70
2018-03-22T14:32:09.263Z,8.15
2018-03-22T14:35:12.549Z,7.15
2018-03-22T14:38:15.913Z,6.35
2018-03-22T14:41:19.263Z,7.60
2018-03-22T14:44:22.545Z,7.68
2018-03-22T14:47:25.871Z,7.78
2018-03-22T14:50:29.178Z,7.18
2018-03-22T14:53:33.446Z,8.30
2018-03-22T14:56:36.757Z,6.90
2018-03-22T14:59:40.219Z,6.45
2018-03-22T15:02:43.665Z,7.03
2018-03-22T15:05:47.920Z,7.18
2018-03-22T15:08:51.250Z,7.30
2018-03-22T15:11:54.596Z,7.30
2018-03-22T15:14:57.942Z,6.60
2018-03-22T15:18:01.288Z,7.20
2018-03-22T15:21:04.592Z,7.70
2018-03-22T15:24:08.296Z,7.32
2018-03-22T15:27:11.632Z,7.45
2018-03-22T15:30:14.921Z,6.97
2018-03-22T15:33:18.964Z,8.85
2018-03-22T15:36:22.347Z,6.22
2018-03-22T15:39:26.478Z,7.62
2018-03-22T15:42:29.843Z,7.90
2018-03-22T15:45:33.498Z,8.63
2018-03-22T15:48:36.862Z,7.82
2018-03-22T15:51:40.327Z,7.22
2018-03-22T15:54:43.671Z,7.55
2018-03-22T15:57:47.004Z,6.90
2018-03-22T16:00:50.344Z,6.82
2018-03-22T16:03:54.536Z,7.95
2018-03-22T16:06:57.886Z,7.68
2018-03-22T16:10:02.046Z,6.97
2018-03-22T16:13:05.377Z,8.55
2018-03-22T16:16:08.805Z,8.05
2018-03-22T16:19:12.976Z,8.45
2018-03-22T16:22:17.146Z,7.43
2018-03-22T16:25:21.249Z,6.72
2018-03-22T16:28:24.534Z,7.75
2018-03-22T16:31:28.659Z,7.53
2018-03-22T16:34:32.730Z,8.73
2018-03-22T16:37:36.026Z,8.30
2018-03-22T16:40:39.387Z,7.95
2018-03-22T16:43:42.824Z,8.18
2018-03-22T16:46:46.943Z,9.13
2018-03-22T16:49:50.271Z,8.93
2018-03-22T16:52:53.616Z,8.13
2018-03-22T16:55:57.057Z,8.02
2018-03-22T16:59:00.442Z,7.68
2018-03-22T17:02:03.867Z,8.35
2018-03-22T17:05:07.240Z,7.97
2018-03-22T17:08:10.563Z,8.35
2018-03-22T17:11:14.650Z,8.32
2018-03-22T17:14:17.991Z,8.80
2018-03-22T17:17:21.301Z,9.40
2018-03-22T17:20:24.608Z,8.43
2018-03-22T17:23:27.885Z,8.38
2018-03-22T17:26:31.184Z,9.43
2018-03-22T17:29:34.744Z,7.95
2018-03-22T17:32:38.027Z,8.20
2018-03-22T17:35:41.382Z,14.95
2018-03-22T17:38:44.715Z,8.65
2018-03-22T17:41:48.057Z,7.95
2018-03-22T17:44:51.423Z,8.32
2018-03-22T17:47:54.819Z,8.02
2018-03-22T17:50:58.148Z,9.45
2018-03-22T17:54:01.416Z,8.80
2018-03-22T17:57:04.701Z,8.93
2018-03-22T18:00:07.978Z,9.30
2018-03-22T18:03:11.605Z,9.98
2018-03-22T18:06:14.866Z,9.55
2018-03-22T18:09:18.190Z,8.70
2018-03-22T18:12:22.305Z,8.73
2018-03-22T18:15:25.614Z,9.52
2018-03-22T18:18:31.566Z,10.23
2018-03-22T18:21:35.013Z,10.20
2018-03-22T18:24:38.330Z,9.93
2018-03-22T18:27:41.689Z,9.23
2018-03-22T18:30:45.165Z,9.10
2018-03-22T18:33:48.472Z,10.48
2018-03-22T18:36:51.774Z,10.55
2018-03-22T18:39:55.257Z,9.48
2018-03-22T18:42:58.870Z,9.70
2018-03-22T18:46:02.438Z,10.52
2018-03-22T18:49:07.045Z,9.10
2018-03-22T18:52:10.904Z,10.18
2018-03-22T18:55:14.534Z,9.38
2018-03-22T18:58:21.706Z,9.88
2018-03-22T19:01:25.236Z,9.93
2018-03-22T19:04:28.658Z,10.35
2018-03-22T19:07:32.044Z,10.25
2018-03-22T19:10:35.527Z,10.32
2018-03-22T19:13:39.671Z,10.18
2018-03-22T19:16:43.165Z,9.20
2018-03-22T19:19:46.540Z,11.57
2018-03-22T19:22:50.819Z,10.57
2018-03-22T19:25:54.248Z,9.30
2018-03-22T19:28:57.684Z,9.75
2018-03-22T19:32:01.289Z,10.55
2018-03-22T19:35:04.738Z,8.80
2018-03-22T19:38:08.218Z,11.00
2018-03-22T19:41:11.723Z,10.95
2018-03-22T19:44:15.188Z,11.30
2018-03-22T19:47:18.624Z,10.55
2018-03-22T19:50:22.063Z,11.60
2018-03-22T19:53:26.431Z,10.18
2018-03-22T19:56:29.849Z,12.70
2018-03-22T19:59:33.327Z,12.02
2018-03-22T20:02:36.760Z,12.10
2018-03-22T20:08:51.464Z,12.85
2018-03-22T20:11:55.856Z,12.05
2018-03-22T20:14:59.283Z,10.95
2018-03-22T20:18:02.767Z,11.77
2018-03-22T20:21:06.712Z,11.75
2018-03-22T20:24:10.149Z,11.57
2018-03-22T20:27:13.626Z,11.68
2018-03-22T20:30:17.026Z,12.55
2018-03-22T20:33:20.446Z,11.82
2018-03-22T20:36:23.921Z,13.82
2018-03-22T20:39:27.225Z,12.45
2018-03-22T20:42:30.540Z,12.10
2018-03-22T20:45:34.063Z,11.95
2018-03-22T20:48:37.370Z,12.70
2018-03-22T20:51:40.658Z,13.10
2018-03-22T20:54:43.932Z,13.52
2018-03-22T20:57:48.075Z,11.15
2018-03-22T21:00:51.455Z,12.82
2018-03-22T21:03:54.754Z,12.85
2018-03-22T21:06:58.035Z,14.52
2018-03-22T21:10:01.305Z,11.65
2018-03-22T21:13:05.348Z,12.02
2018-03-22T21:16:08.918Z,13.62
2018-03-22T21:19:12.169Z,13.80
2018-03-22T21:22:15.464Z,13.00
2018-03-22T21:25:18.726Z,13.75
2018-03-22T21:28:22.126Z,13.77
2018-03-22T21:31:26.195Z,14.23
2018-03-22T21:34:29.506Z,13.07
2018-03-22T21:37:32.843Z,14.05
2018-03-22T21:40:36.910Z,12.85
2018-03-22T21:43:51.989Z,14.27
2018-03-22T21:46:55.350Z,13.93
2018-03-22T21:49:58.778Z,11.75
2018-03-22T21:53:02.067Z,13.18
2018-03-22T21:56:05.382Z,13.40
2018-03-22T21:59:09.039Z,14.02
2018-03-22T22:02:12.372Z,13.80
2018-03-22T22:05:15.940Z,13.68
2018-03-22T22:08:19.231Z,15.10
2018-03-22T22:11:23.111Z,14.48
2018-03-22T22:14:26.392Z,13.10
2018-03-22T22:17:29.724Z,14.00
2018-03-22T22:20:33.102Z,11.77
2018-03-22T22:23:36.466Z,14.23
2018-03-22T22:26:39.779Z,13.38
2018-03-22T22:29:43.126Z,13.98
2018-03-22T22:32:47.172Z,12.37
2018-03-22T22:35:50.424Z,13.65
2018-03-22T22:38:53.674Z,14.63
2018-03-22T22:41:56.955Z,12.82
2018-03-22T22:45:00.333Z,13.05
2018-03-22T22:48:03.695Z,13.68
2018-03-22T22:51:06.985Z,14.00
2018-03-22T22:54:10.810Z,14.25
2018-03-22T22:57:14.917Z,15.18
2018-03-22T23:00:18.636Z,14.07
2018-03-22T23:03:21.940Z,13.85
2018-03-22T23:06:25.996Z,15.82
2018-03-22T23:09:29.257Z,13.50
2018-03-22T23:12:33.462Z,13.52
2018-03-22T23:15:36.839Z,13.85
2018-03-22T23:18:40.169Z,14.93
2018-03-22T23:21:43.530Z,14.00
2018-03-22T23:24:46.933Z,12.65
2018-03-22T23:27:50.345Z,14.20
2018-03-22T23:30:53.719Z,13.25
2018-03-22T23:33:57.078Z,12.68
2018-03-22T23:37:00.416Z,13.65
2018-03-22T23:40:03.744Z,13.45
2018-03-22T23:43:07.432Z,12.70
2018-03-22T23:46:10.786Z,14.63
2018-03-22T23:49:14.036Z,13.00
2018-03-22T23:52:17.347Z,14.35
2018-03-22T23:55:20.679Z,13.10
2018-03-22T23:58:24.078Z,12.68
